createdAt,value
2023-05-06T00:01:27.678Z,14.23
2023-05-06T00:03:54.473Z,14.25
2023-05-06T00:06:21.238Z,14.21
2023-05-06T00:08:47.918Z,14.18
2023-05-06T00:11:14.619Z,14.13
2023-05-06T00:13:41.748Z,14.12
2023-05-06T00:16:08.728Z,14.10
2023-05-06T00:18:35.462Z,14.06
2023-05-06T00:21:02.203Z,14.03
2023-05-06T00:23:28.946Z,14.02
2023-05-06T00:25:55.633Z,14.01
2023-05-06T00:28:22.509Z,13.97
2023-05-06T00:30:49.212Z,13.91
2023-05-06T00:33:16.036Z,13.95
2023-05-06T00:35:42.844Z,14.02
2023-05-06T00:38:12.326Z,14.04
2023-05-06T00:40:39.819Z,14.02
2023-05-06T00:43:06.930Z,14.03
2023-05-06T00:45:33.698Z,14.00
2023-05-06T00:48:00.846Z,14.01
2023-05-06T00:50:32.018Z,14.00
2023-05-06T00:52:59.632Z,13.99
2023-05-06T00:55:27.414Z,14.00
2023-05-06T00:57:54.706Z,14.01
2023-05-06T01:00:21.986Z,14.04
2023-05-06T01:02:51.977Z,14.00
2023-05-06T01:05:22.566Z,13.98
2023-05-06T01:08:08.241Z,13.94
2023-05-06T01:10:55.602Z,13.83
2023-05-06T01:13:40.076Z,13.78
2023-05-06T01:16:11.798Z,13.81
2023-05-06T01:18:38.726Z,13.83
2023-05-06T01:21:06.249Z,13.76
2023-05-06T01:23:55.861Z,13.68
2023-05-06T01:26:22.795Z,13.61
2023-05-06T01:28:49.556Z,13.70
2023-05-06T01:31:25.839Z,13.73
2023-05-06T01:34:14.038Z,13.66
2023-05-06T01:36:43.493Z,13.68
2023-05-06T01:39:25.858Z,13.67
2023-05-06T01:41:55.978Z,13.63
2023-05-06T01:44:25.248Z,13.61
2023-05-06T01:46:53.815Z,13.54
2023-05-06T01:49:22.799Z,13.61
2023-05-06T01:51:54.329Z,13.47
2023-05-06T01:54:21.064Z,13.44
2023-05-06T01:56:47.719Z,13.33
2023-05-06T01:59:14.347Z,13.30
2023-05-06T02:01:41.035Z,13.23
2023-05-06T02:04:07.824Z,13.18
2023-05-06T02:06:36.667Z,13.20
2023-05-06T02:09:03.434Z,13.24
2023-05-06T02:11:30.106Z,13.16
2023-05-06T02:13:56.775Z,13.12
2023-05-06T02:16:23.421Z,13.12
2023-05-06T02:18:50.119Z,13.11
2023-05-06T02:21:16.798Z,13.01
2023-05-06T02:23:43.734Z,13.04
2023-05-06T02:26:10.482Z,13.00
2023-05-06T02:28:37.145Z,12.92
2023-05-06T02:31:03.911Z,12.89
2023-05-06T02:33:30.659Z,12.82
2023-05-06T02:35:57.357Z,12.76
2023-05-06T02:38:24.704Z,12.74
2023-05-06T02:40:51.361Z,12.69
2023-05-06T02:43:18.085Z,12.72
2023-05-06T02:45:44.929Z,12.72
2023-05-06T02:48:11.691Z,12.45
2023-05-06T02:50:38.370Z,12.48
2023-05-06T02:53:05.060Z,12.52
2023-05-06T02:55:31.752Z,12.41
2023-05-06T02:57:58.534Z,12.37
2023-05-06T03:00:25.210Z,12.43
2023-05-06T03:02:51.901Z,12.38
2023-05-06T03:05:18.699Z,12.18
2023-05-06T03:07:45.363Z,12.11
2023-05-06T03:10:12.224Z,12.05
2023-05-06T03:12:38.898Z,11.91
2023-05-06T03:15:08.747Z,12.08
2023-05-06T03:17:36.621Z,12.22
2023-05-06T03:20:03.409Z,12.06
2023-05-06T03:22:30.123Z,11.99
2023-05-06T03:24:56.903Z,11.93
2023-05-06T03:27:23.650Z,12.08
2023-05-06T03:29:50.316Z,12.10
2023-05-06T03:32:16.902Z,12.09
2023-05-06T03:34:43.526Z,11.88
2023-05-06T03:37:10.229Z,11.96
2023-05-06T03:39:38.964Z,11.89
2023-05-06T03:42:08.520Z,11.85
2023-05-06T03:44:36.079Z,11.81
2023-05-06T03:47:02.913Z,11.78
2023-05-06T03:49:29.725Z,11.91
2023-05-06T03:51:56.378Z,11.93
2023-05-06T03:54:23.194Z,12.03
2023-05-06T03:56:49.798Z,11.93
2023-05-06T03:59:17.962Z,11.89
2023-05-06T04:01:44.602Z,11.91
2023-05-06T04:04:11.498Z,11.95
2023-05-06T04:06:38.314Z,12.05
2023-05-06T04:09:05.050Z,12.02
2023-05-06T04:11:32.200Z,12.00
2023-05-06T04:13:58.804Z,12.09
2023-05-06T04:16:25.481Z,12.12
2023-05-06T04:18:54.488Z,12.23
2023-05-06T04:21:21.164Z,12.28
2023-05-06T04:23:47.851Z,12.35
2023-05-06T04:26:14.565Z,12.45
2023-05-06T04:28:41.284Z,12.51
2023-05-06T04:31:07.929Z,12.62
2023-05-06T04:33:35.026Z,12.67
2023-05-06T04:36:01.876Z,12.79
2023-05-06T04:38:31.502Z,12.90
2023-05-06T04:40:58.220Z,13.05
2023-05-06T04:43:26.046Z,13.11
2023-05-06T04:45:53.034Z,13.20
2023-05-06T04:48:20.917Z,13.26
2023-05-06T04:50:48.212Z,13.34
2023-05-06T04:53:15.607Z,13.36
2023-05-06T04:55:42.243Z,13.58
2023-05-06T04:58:09.012Z,13.86
2023-05-06T05:00:35.796Z,14.12
2023-05-06T05:03:02.644Z,14.34
2023-05-06T05:05:29.543Z,14.46
2023-05-06T05:07:56.599Z,14.36
2023-05-06T05:10:23.327Z,14.27
2023-05-06T05:12:49.974Z,14.40
2023-05-06T05:15:16.774Z,14.39
2023-05-06T05:17:43.628Z,14.33
2023-05-06T05:20:10.686Z,14.46
2023-05-06T05:22:37.493Z,14.80
2023-05-06T05:25:07.017Z,15.07
2023-05-06T05:27:34.465Z,14.97
2023-05-06T05:30:01.101Z,15.26
2023-05-06T05:32:27.914Z,15.53
2023-05-06T05:34:54.920Z,15.47
2023-05-06T05:37:21.600Z,15.91
2023-05-06T05:39:48.244Z,16.14
2023-05-06T05:42:14.971Z,16.06
2023-05-06T05:44:41.600Z,16.31
2023-05-06T05:47:10.649Z,16.11
2023-05-06T05:49:39.179Z,16.17
2023-05-06T05:52:05.912Z,16.54
2023-05-06T05:54:32.621Z,16.59
2023-05-06T05:57:01.700Z,16.86
2023-05-06T05:59:28.526Z,17.13
2023-05-06T06:01:55.262Z,17.22
2023-05-06T06:04:22.005Z,17.29
2023-05-06T06:06:48.659Z,17.16
2023-05-06T06:09:15.296Z,17.13
2023-05-06T06:11:41.981Z,17.17
2023-05-06T06:14:08.860Z,17.24
2023-05-06T06:16:38.263Z,17.57
2023-05-06T06:19:05.186Z,17.92
2023-05-06T06:21:32.156Z,17.91
2023-05-06T06:23:59.931Z,17.89
2023-05-06T06:26:26.640Z,18.12
2023-05-06T06:28:53.365Z,18.20
2023-05-06T06:31:19.991Z,18.59
2023-05-06T06:33:46.695Z,18.75
2023-05-06T06:36:13.566Z,18.93
2023-05-06T06:38:40.354Z,18.97
2023-05-06T06:41:07.394Z,19.38
2023-05-06T06:43:33.975Z,19.62
2023-05-06T06:46:02.116Z,19.59
2023-05-06T06:48:28.847Z,19.52
2023-05-06T06:50:55.494Z,19.72
2023-05-06T06:53:22.287Z,19.74
2023-05-06T06:55:48.991Z,19.73
2023-05-06T06:58:18.838Z,19.92
2023-05-06T07:00:45.582Z,19.94
2023-05-06T07:03:12.298Z,19.94
2023-05-06T07:05:45.389Z,20.19
2023-05-06T07:08:12.060Z,20.39
2023-05-06T07:10:38.914Z,20.52
2023-05-06T07:13:07.456Z,20.37
2023-05-06T07:15:35.831Z,20.30
2023-05-06T07:18:02.576Z,20.49
2023-05-06T07:20:29.411Z,20.59
2023-05-06T07:22:56.350Z,20.31
2023-05-06T07:25:23.095Z,20.47
2023-05-06T07:27:49.773Z,20.49
2023-05-06T07:30:16.684Z,20.65
2023-05-06T07:32:43.490Z,20.80
2023-05-06T07:35:10.524Z,20.63
2023-05-06T07:37:43.229Z,20.69
2023-05-06T07:40:10.195Z,20.66
2023-05-06T07:42:36.861Z,20.98
2023-05-06T07:45:04.514Z,20.87
2023-05-06T07:47:32.641Z,20.84
2023-05-06T07:49:59.672Z,21.03
2023-05-06T07:52:27.032Z,21.26
2023-05-06T07:54:54.079Z,21.43
2023-05-06T07:57:20.709Z,21.48
2023-05-06T07:59:49.720Z,21.22
2023-05-06T08:02:16.877Z,21.20
2023-05-06T08:04:44.412Z,21.30
2023-05-06T08:07:11.465Z,21.38
2023-05-06T08:09:38.353Z,21.37
2023-05-06T08:12:05.109Z,21.46
2023-05-06T08:14:31.764Z,21.32
2023-05-06T08:16:58.458Z,21.59
2023-05-06T08:19:25.210Z,21.59
2023-05-06T08:21:51.811Z,21.94
2023-05-06T08:24:18.655Z,22.04
2023-05-06T08:26:45.355Z,21.83
2023-05-06T08:29:12.009Z,21.52
2023-05-06T08:31:38.774Z,21.41
2023-05-06T08:34:05.547Z,21.30
2023-05-06T08:36:34.264Z,21.42
2023-05-06T08:39:00.858Z,21.47
2023-05-06T08:41:30.490Z,21.40
2023-05-06T08:43:58.406Z,21.49
2023-05-06T08:46:25.272Z,21.43
2023-05-06T08:48:54.949Z,21.38
2023-05-06T08:51:28.960Z,21.63
2023-05-06T08:53:56.830Z,21.76
2023-05-06T08:56:28.997Z,21.98
2023-05-06T08:58:57.566Z,22.05
2023-05-06T09:01:25.836Z,22.19
2023-05-06T09:03:53.026Z,22.32
2023-05-06T09:06:19.763Z,22.45
2023-05-06T09:08:48.939Z,22.55
2023-05-06T09:11:21.689Z,22.49
2023-05-06T09:13:48.353Z,22.43
2023-05-06T09:16:28.986Z,22.12
2023-05-06T09:18:56.302Z,22.41
2023-05-06T09:21:30.028Z,22.30
2023-05-06T09:23:57.656Z,22.35
2023-05-06T09:26:24.305Z,22.35
2023-05-06T09:28:51.290Z,22.37
2023-05-06T09:31:20.409Z,22.37
2023-05-06T09:33:47.087Z,22.27
2023-05-06T09:36:13.721Z,22.02
2023-05-06T09:38:41.260Z,21.86
2023-05-06T09:41:08.248Z,21.68
2023-05-06T09:43:35.456Z,21.65
2023-05-06T09:46:02.885Z,22.05
2023-05-06T09:48:29.874Z,22.28
2023-05-06T09:50:58.371Z,22.10
2023-05-06T09:53:28.356Z,21.93
2023-05-06T09:55:55.845Z,21.77
2023-05-06T09:58:23.146Z,21.58
2023-05-06T10:00:52.156Z,21.47
2023-05-06T10:03:20.392Z,21.53
2023-05-06T10:05:47.731Z,21.50
2023-05-06T10:08:16.978Z,21.72
2023-05-06T10:10:45.012Z,21.73
2023-05-06T10:13:13.043Z,21.78
2023-05-06T10:15:40.477Z,22.06
2023-05-06T10:18:13.198Z,21.88
2023-05-06T10:20:42.217Z,21.66
2023-05-06T10:23:36.203Z,22.05
2023-05-06T10:26:12.833Z,21.74
2023-05-06T10:28:45.049Z,21.59
2023-05-06T10:31:13.497Z,22.11
2023-05-06T10:33:48.655Z,22.53
2023-05-06T10:36:28.366Z,22.45
2023-05-06T10:38:56.998Z,22.97
2023-05-06T10:41:25.009Z,22.64
2023-05-06T10:43:51.690Z,22.71
2023-05-06T10:46:18.500Z,23.10
2023-05-06T10:49:03.728Z,23.53
2023-05-06T10:51:31.818Z,23.23
2023-05-06T10:54:00.682Z,22.77
2023-05-06T10:56:27.287Z,22.54
2023-05-06T10:58:54.718Z,22.53
2023-05-06T11:01:31.184Z,22.49
2023-05-06T11:03:58.019Z,22.83
2023-05-06T11:06:39.971Z,23.06
2023-05-06T11:09:15.098Z,23.22
2023-05-06T11:12:00.183Z,22.92
2023-05-06T11:14:27.060Z,23.01
2023-05-06T11:16:55.203Z,23.22
2023-05-06T11:19:24.175Z,22.90
2023-05-06T11:21:51.356Z,22.80
2023-05-06T11:24:42.251Z,22.85
2023-05-06T11:27:16.933Z,23.12
2023-05-06T11:29:43.646Z,23.03
2023-05-06T11:32:25.241Z,22.79
2023-05-06T11:34:56.042Z,22.66
2023-05-06T11:37:27.861Z,22.64
2023-05-06T11:39:54.837Z,22.96
2023-05-06T11:42:26.020Z,22.86
2023-05-06T11:45:00.354Z,23.00
2023-05-06T11:47:27.208Z,23.27
2023-05-06T11:49:55.081Z,23.32
2023-05-06T11:52:21.739Z,23.45
2023-05-06T11:54:50.989Z,23.65
2023-05-06T11:57:19.645Z,23.33
2023-05-06T11:59:46.349Z,23.06
2023-05-06T12:02:14.436Z,22.98
2023-05-06T12:04:47.061Z,23.08
2023-05-06T12:07:15.574Z,23.15
2023-05-06T12:09:45.842Z,23.03
2023-05-06T12:12:15.328Z,23.04
2023-05-06T12:14:42.974Z,23.16
2023-05-06T12:17:09.915Z,23.19
2023-05-06T12:19:36.802Z,23.37
2023-05-06T12:22:20.244Z,23.29
2023-05-06T12:24:50.411Z,23.37
2023-05-06T12:27:35.926Z,23.17
2023-05-06T12:30:02.725Z,22.99
2023-05-06T12:32:30.527Z,22.93
2023-05-06T12:34:57.452Z,22.95
2023-05-06T12:37:28.758Z,22.97
2023-05-06T12:39:58.835Z,23.01
2023-05-06T12:42:26.584Z,22.91
2023-05-06T12:44:53.506Z,22.98
2023-05-06T12:47:21.273Z,22.98
2023-05-06T12:49:55.913Z,22.98
2023-05-06T12:52:24.521Z,22.89
2023-05-06T12:54:51.753Z,22.84
2023-05-06T12:57:18.984Z,22.90
2023-05-06T12:59:46.757Z,23.02
2023-05-06T13:02:14.212Z,23.13
2023-05-06T13:04:41.410Z,23.25
2023-05-06T13:07:08.356Z,23.35
2023-05-06T13:09:35.149Z,23.38
2023-05-06T13:12:04.155Z,23.49
2023-05-06T13:14:39.840Z,23.52
2023-05-06T13:17:07.535Z,23.44
2023-05-06T13:19:34.345Z,23.40
2023-05-06T13:22:01.794Z,23.47
2023-05-06T13:24:29.377Z,23.57
2023-05-06T13:26:55.962Z,23.48
2023-05-06T13:29:22.650Z,23.62
2023-05-06T13:31:49.404Z,23.76
2023-05-06T13:34:16.151Z,23.87
2023-05-06T13:36:45.296Z,24.00
2023-05-06T13:39:11.955Z,23.77
2023-05-06T13:41:38.539Z,23.62
2023-05-06T13:44:05.466Z,23.49
2023-05-06T13:46:32.262Z,23.31
2023-05-06T13:48:58.934Z,23.22
2023-05-06T13:51:25.621Z,23.41
2023-05-06T13:53:52.281Z,23.50
2023-05-06T13:56:18.929Z,23.44
2023-05-06T13:58:45.711Z,23.37
2023-05-06T14:01:13.069Z,23.41
2023-05-06T14:03:39.686Z,23.51
2023-05-06T14:06:08.583Z,23.53
2023-05-06T14:08:35.319Z,23.39
2023-05-06T14:11:03.840Z,23.34
2023-05-06T14:13:31.926Z,23.26
2023-05-06T14:16:02.254Z,23.01
2023-05-06T14:18:29.463Z,22.97
2023-05-06T14:21:00.706Z,22.87
2023-05-06T14:23:30.368Z,22.92
2023-05-06T14:26:05.456Z,23.07
2023-05-06T14:28:32.337Z,23.27
2023-05-06T14:30:59.046Z,23.27
2023-05-06T14:33:25.670Z,23.45
2023-05-06T14:35:54.922Z,23.54
2023-05-06T14:38:21.694Z,23.65
2023-05-06T14:40:48.509Z,23.64
2023-05-06T14:43:15.145Z,23.68
2023-05-06T14:45:42.005Z,23.73
2023-05-06T14:48:08.790Z,23.76
2023-05-06T14:50:35.629Z,23.84
2023-05-06T14:53:03.762Z,23.84
2023-05-06T14:55:30.909Z,23.88
2023-05-06T14:57:57.526Z,24.00
2023-05-06T15:00:24.404Z,24.00
2023-05-06T15:02:51.161Z,23.97
2023-05-06T15:05:18.017Z,23.93
2023-05-06T15:07:44.669Z,24.00
2023-05-06T15:10:11.291Z,23.95
2023-05-06T15:12:38.076Z,23.94
2023-05-06T15:15:05.654Z,23.98
2023-05-06T15:17:32.615Z,23.92
2023-05-06T15:19:59.420Z,23.72
2023-05-06T15:22:26.206Z,23.48
2023-05-06T15:24:55.870Z,23.44
2023-05-06T15:27:22.534Z,23.35
2023-05-06T15:29:49.232Z,23.41
2023-05-06T15:32:16.157Z,23.55
2023-05-06T15:34:42.776Z,23.55
2023-05-06T15:37:09.462Z,23.33
2023-05-06T15:39:36.588Z,23.35
2023-05-06T15:42:03.698Z,23.30
2023-05-06T15:44:32.017Z,23.20
2023-05-06T15:46:58.791Z,23.25
2023-05-06T15:49:51.113Z,23.27
2023-05-06T15:52:12.333Z,23.30
2023-05-06T15:54:40.005Z,23.28
2023-05-06T15:57:07.823Z,23.26
2023-05-06T15:59:34.845Z,23.15
2023-05-06T16:02:26.087Z,23.10
2023-05-06T16:04:51.549Z,23.00
2023-05-06T16:07:18.401Z,22.94
2023-05-06T16:09:45.099Z,22.78
2023-05-06T16:12:11.723Z,22.74
2023-05-06T16:14:38.371Z,22.67
2023-05-06T16:17:05.092Z,22.69
2023-05-06T16:19:32.112Z,22.73
2023-05-06T16:22:02.322Z,22.66
2023-05-06T16:24:29.161Z,22.54
2023-05-06T16:26:56.009Z,22.45
2023-05-06T16:29:22.729Z,22.38
2023-05-06T16:31:49.493Z,22.30
2023-05-06T16:34:16.435Z,22.23
2023-05-06T16:36:45.623Z,22.24
2023-05-06T16:39:12.277Z,22.20
2023-05-06T16:41:39.032Z,22.22
2023-05-06T16:44:05.912Z,22.14
2023-05-06T16:46:32.723Z,21.99
2023-05-06T16:48:59.359Z,21.90
2023-05-06T16:51:26.131Z,21.88
2023-05-06T16:53:52.800Z,21.86
2023-05-06T16:56:19.741Z,21.82
2023-05-06T16:58:46.383Z,21.76
2023-05-06T17:01:13.117Z,21.71
2023-05-06T17:03:39.830Z,21.69
2023-05-06T17:06:08.938Z,21.64
2023-05-06T17:08:36.716Z,21.55
2023-05-06T17:11:06.481Z,21.46
2023-05-06T17:13:33.586Z,21.40
2023-05-06T17:16:02.003Z,21.30
2023-05-06T17:18:31.713Z,21.17
2023-05-06T17:21:01.434Z,21.07
2023-05-06T17:23:28.052Z,20.93
2023-05-06T17:25:56.456Z,20.86
2023-05-06T17:28:23.327Z,20.76
2023-05-06T17:30:50.051Z,20.69
2023-05-06T17:33:16.878Z,20.59
2023-05-06T17:35:49.305Z,20.50
2023-05-06T17:38:16.033Z,20.44
2023-05-06T17:40:43.215Z,20.40
2023-05-06T17:43:09.924Z,20.31
2023-05-06T17:45:36.586Z,20.29
2023-05-06T17:48:03.394Z,20.23
2023-05-06T17:50:30.170Z,20.22
2023-05-06T17:53:03.174Z,20.18
2023-05-06T17:55:29.806Z,20.14
2023-05-06T17:57:56.496Z,20.13
2023-05-06T18:00:23.396Z,20.11
2023-05-06T18:02:50.177Z,20.16
2023-05-06T18:05:17.182Z,20.09
2023-05-06T18:07:45.548Z,20.10
2023-05-06T18:10:12.129Z,20.11
2023-05-06T18:12:39.204Z,20.05
2023-05-06T18:15:06.660Z,19.88
2023-05-06T18:17:34.019Z,19.75
2023-05-06T18:20:00.725Z,19.66
2023-05-06T18:22:27.530Z,19.58
2023-05-06T18:24:54.184Z,19.45
2023-05-06T18:27:24.300Z,19.32
2023-05-06T18:29:53.980Z,19.29
2023-05-06T18:32:20.974Z,19.21
2023-05-06T18:34:47.582Z,19.03
2023-05-06T18:37:14.193Z,18.94
2023-05-06T18:39:41.644Z,18.82
2023-05-06T18:42:11.133Z,18.73
2023-05-06T18:44:38.111Z,18.76
2023-05-06T18:47:05.086Z,18.66
2023-05-06T18:49:31.743Z,18.59
2023-05-06T18:51:58.463Z,18.44
2023-05-06T18:54:25.262Z,18.36
2023-05-06T18:56:52.113Z,18.40
2023-05-06T18:59:18.804Z,18.27
2023-05-06T19:01:48.620Z,18.24
2023-05-06T19:04:15.292Z,18.11
2023-05-06T19:06:42.106Z,18.14
2023-05-06T19:09:09.153Z,18.08
2023-05-06T19:11:35.935Z,18.18
2023-05-06T19:14:02.837Z,18.24
2023-05-06T19:16:29.731Z,18.21
2023-05-06T19:18:56.746Z,18.03
2023-05-06T19:21:23.453Z,17.92
2023-05-06T19:23:50.270Z,17.93
2023-05-06T19:26:16.906Z,17.91
2023-05-06T19:28:43.562Z,17.89
2023-05-06T19:31:11.417Z,17.85
2023-05-06T19:33:39.119Z,17.75
2023-05-06T19:36:06.559Z,17.69
2023-05-06T19:38:33.937Z,17.68
2023-05-06T19:41:00.712Z,17.66
2023-05-06T19:43:27.535Z,17.69
2023-05-06T19:45:54.201Z,17.71
2023-05-06T19:48:20.886Z,17.62
2023-05-06T19:50:47.555Z,17.61
2023-05-06T19:53:16.474Z,17.63
2023-05-06T19:55:45.975Z,17.36
2023-05-06T19:58:12.597Z,17.39
2023-05-06T20:00:39.410Z,17.41
2023-05-06T20:03:06.185Z,17.26
2023-05-06T20:05:32.835Z,17.20
2023-05-06T20:07:59.602Z,17.27
2023-05-06T20:10:27.041Z,17.34
2023-05-06T20:12:56.019Z,17.31
2023-05-06T20:15:23.932Z,17.22
2023-05-06T20:17:50.659Z,17.24
2023-05-06T20:20:17.384Z,17.18
2023-05-06T20:22:44.073Z,17.23
2023-05-06T20:25:13.140Z,17.27
2023-05-06T20:27:40.309Z,17.20
2023-05-06T20:30:07.560Z,17.22
2023-05-06T20:32:38.287Z,17.24
2023-05-06T20:35:06.109Z,17.27
2023-05-06T20:37:35.693Z,17.19
2023-05-06T20:40:03.083Z,17.18
2023-05-06T20:42:29.715Z,17.18
2023-05-06T20:44:56.334Z,17.20
2023-05-06T20:47:23.157Z,17.22
2023-05-06T20:49:49.860Z,17.22
2023-05-06T20:52:19.135Z,17.17
2023-05-06T20:54:46.181Z,17.20
2023-05-06T20:57:14.048Z,17.19
2023-05-06T20:59:41.332Z,17.21
2023-05-06T21:02:08.124Z,17.18
2023-05-06T21:04:34.792Z,17.15
2023-05-06T21:07:01.584Z,17.02
2023-05-06T21:09:28.758Z,16.95
2023-05-06T21:11:57.977Z,16.84
2023-05-06T21:14:26.641Z,16.76
2023-05-06T21:16:53.469Z,16.76
2023-05-06T21:19:20.155Z,16.73
2023-05-06T21:21:48.235Z,16.78
2023-05-06T21:24:15.034Z,16.84
2023-05-06T21:26:41.843Z,16.84
2023-05-06T21:29:08.673Z,16.81
2023-05-06T21:31:36.942Z,16.89
2023-05-06T21:34:06.369Z,16.95
2023-05-06T21:36:33.093Z,16.99
2023-05-06T21:39:05.381Z,16.93
2023-05-06T21:41:32.024Z,16.89
2023-05-06T21:43:58.751Z,16.74
2023-05-06T21:46:28.493Z,16.59
2023-05-06T21:48:55.181Z,16.42
2023-05-06T21:51:21.956Z,16.36
2023-05-06T21:53:54.434Z,16.27
2023-05-06T21:56:21.528Z,16.21
2023-05-06T21:58:50.029Z,16.21
2023-05-06T22:01:16.938Z,16.18
2023-05-06T22:03:44.870Z,16.15
2023-05-06T22:06:15.150Z,15.93
2023-05-06T22:08:42.242Z,15.72
2023-05-06T22:11:09.095Z,15.63
2023-05-06T22:13:38.738Z,15.55
2023-05-06T22:16:10.213Z,15.47
2023-05-06T22:18:39.465Z,15.39
2023-05-06T22:21:06.174Z,15.35
2023-05-06T22:23:40.220Z,15.23
2023-05-06T22:26:08.005Z,15.19
2023-05-06T22:28:34.697Z,15.12
2023-05-06T22:31:01.465Z,15.10
2023-05-06T22:33:29.440Z,15.13
2023-05-06T22:35:56.153Z,15.17
2023-05-06T22:38:25.773Z,15.20
2023-05-06T22:40:52.982Z,15.18
2023-05-06T22:43:20.000Z,15.13
2023-05-06T22:45:46.764Z,15.06
2023-05-06T22:48:13.576Z,15.07
2023-05-06T22:50:41.517Z,15.05
2023-05-06T22:53:14.950Z,15.08
2023-05-06T22:55:42.835Z,15.09
2023-05-06T22:58:09.625Z,15.08
2023-05-06T23:00:36.302Z,15.13
2023-05-06T23:03:06.182Z,15.11
2023-05-06T23:05:32.981Z,15.17
2023-05-06T23:07:59.650Z,15.11
2023-05-06T23:10:26.449Z,15.09
2023-05-06T23:12:53.197Z,15.11
2023-05-06T23:15:19.869Z,15.11
2023-05-06T23:17:46.685Z,15.13
2023-05-06T23:20:13.376Z,15.17
2023-05-06T23:22:42.327Z,15.15
2023-05-06T23:25:11.508Z,15.15
2023-05-06T23:27:41.108Z,15.19
2023-05-06T23:30:11.557Z,15.18
2023-05-06T23:32:38.264Z,15.17
2023-05-06T23:35:05.523Z,15.25
2023-05-06T23:37:34.882Z,15.30
2023-05-06T23:40:01.693Z,15.30
2023-05-06T23:42:31.028Z,15.32
2023-05-06T23:44:57.706Z,15.36
2023-05-06T23:47:24.363Z,15.35
2023-05-06T23:49:51.113Z,15.37
2023-05-06T23:52:17.751Z,15.33
2023-05-06T23:54:44.548Z,15.32
2023-05-06T23:57:11.165Z,15.34
2023-05-06T23:59:37.893Z,15.30
